createdAt,value
2022-10-07T00:00:40.006Z,30
2022-10-07T00:01:44.358Z,25
2022-10-07T00:02:49.053Z,32
2022-10-07T00:03:53.648Z,25
2022-10-07T00:04:58.184Z,29
2022-10-07T00:06:02.649Z,29
2022-10-07T00:07:12.528Z,25
2022-10-07T00:08:22.524Z,28
2022-10-07T00:09:27.065Z,26
2022-10-07T00:10:31.551Z,26
2022-10-07T00:11:39.035Z,25
2022-10-07T00:14:33.431Z,28
2022-10-07T00:15:37.976Z,32
2022-10-07T00:16:46.310Z,32
2022-10-07T00:17:50.820Z,31
2022-10-07T00:18:55.793Z,32
2022-10-07T00:20:00.417Z,30
2022-10-07T00:21:05.248Z,29
2022-10-07T00:22:14.461Z,30
2022-10-07T00:23:23.871Z,25
2022-10-07T00:24:33.267Z,30
2022-10-07T00:25:38.110Z,27
2022-10-07T00:26:42.699Z,27
2022-10-07T00:27:47.394Z,29
2022-10-07T00:28:51.682Z,28
2022-10-07T00:29:56.263Z,26
2022-10-07T00:31:00.782Z,30
2022-10-07T00:32:05.267Z,28
2022-10-07T00:33:09.757Z,28
2022-10-07T00:34:14.175Z,30
2022-10-07T00:35:18.879Z,25
2022-10-07T00:36:23.488Z,26
2022-10-07T00:37:30.194Z,29
2022-10-07T00:38:34.542Z,29
2022-10-07T00:42:29.427Z,30
2022-10-07T00:43:37.985Z,30
2022-10-07T00:44:42.669Z,30
2022-10-07T00:45:46.983Z,32
2022-10-07T00:46:51.391Z,37
2022-10-07T00:47:59.086Z,31
2022-10-07T00:49:03.597Z,35
2022-10-07T00:50:08.401Z,34
2022-10-07T00:51:12.650Z,30
2022-10-07T00:52:16.933Z,35
2022-10-07T00:53:21.097Z,31
2022-10-07T00:54:27.378Z,36
2022-10-07T00:55:31.761Z,35
2022-10-07T00:56:38.579Z,38
2022-10-07T00:57:43.293Z,41
2022-10-07T00:58:47.354Z,47
2022-10-07T00:59:52.994Z,39
2022-10-07T01:00:57.665Z,40
2022-10-07T01:02:04.691Z,47
2022-10-07T01:03:08.828Z,40
2022-10-07T01:04:13.311Z,41
2022-10-07T01:05:17.773Z,42
2022-10-07T01:06:22.344Z,40
2022-10-07T01:09:16.655Z,41
2022-10-07T01:13:11.413Z,41
2022-10-07T01:14:16.723Z,34
2022-10-07T01:15:31.376Z,32
2022-10-07T01:16:40.688Z,31
2022-10-07T01:17:52.546Z,32
2022-10-07T01:19:01.833Z,30
2022-10-07T01:20:11.252Z,36
2022-10-07T01:21:28.433Z,35
2022-10-07T01:22:42.948Z,31
2022-10-07T01:23:47.268Z,30
2022-10-07T01:25:01.968Z,27
2022-10-07T01:26:15.041Z,31
2022-10-07T01:27:30.266Z,26
2022-10-07T01:28:34.646Z,36
2022-10-07T01:29:38.908Z,31
2022-10-07T01:30:43.361Z,34
2022-10-07T01:31:47.692Z,32
2022-10-07T01:32:57.312Z,26
2022-10-07T01:34:01.632Z,43
2022-10-07T01:35:05.819Z,40
2022-10-07T01:36:12.840Z,32
2022-10-07T01:37:17.132Z,36
2022-10-07T01:38:21.577Z,35
2022-10-07T01:39:25.941Z,32
2022-10-07T01:40:34.988Z,31
2022-10-07T01:41:44.344Z,26
2022-10-07T01:42:48.929Z,33
2022-10-07T01:43:53.375Z,27
2022-10-07T01:44:57.580Z,28
2022-10-07T01:46:01.904Z,25
2022-10-07T01:47:06.510Z,34
2022-10-07T01:48:11.241Z,25
2022-10-07T01:49:16.484Z,30
2022-10-07T01:50:20.753Z,26
2022-10-07T01:51:24.941Z,29
2022-10-07T01:52:29.252Z,28
2022-10-07T01:53:38.573Z,25
2022-10-07T01:54:47.957Z,30
2022-10-07T01:55:59.966Z,33
2022-10-07T01:57:12.291Z,31
2022-10-07T01:58:26.741Z,31
2022-10-07T01:59:41.185Z,33
2022-10-07T02:00:53.377Z,33
2022-10-07T02:01:57.815Z,31
2022-10-07T02:03:14.113Z,25
2022-10-07T02:04:28.549Z,26
2022-10-07T02:05:33.008Z,30
2022-10-07T02:08:32.755Z,29
2022-10-07T02:09:37.348Z,25
2022-10-07T02:10:47.102Z,29
2022-10-07T02:12:01.085Z,26
2022-10-07T02:13:13.461Z,32
2022-10-07T02:14:18.145Z,32
2022-10-07T02:15:22.392Z,30
2022-10-07T02:16:31.842Z,28
2022-10-07T02:17:42.339Z,31
2022-10-07T02:18:53.725Z,28
2022-10-07T02:19:57.997Z,27
2022-10-07T02:21:03.417Z,32
2022-10-07T02:22:08.349Z,37
2022-10-07T02:23:15.074Z,35
2022-10-07T02:24:19.337Z,36
2022-10-07T02:25:24.169Z,35
2022-10-07T02:26:28.493Z,39
2022-10-07T02:27:36.852Z,36
2022-10-07T02:28:41.231Z,38
2022-10-07T02:29:45.505Z,36
2022-10-07T02:30:49.863Z,40
2022-10-07T02:31:54.221Z,29
2022-10-07T02:32:58.417Z,34
2022-10-07T02:34:02.741Z,35
2022-10-07T02:35:10.901Z,31
2022-10-07T02:36:24.624Z,38
2022-10-07T02:37:28.981Z,31
2022-10-07T02:38:33.270Z,33
2022-10-07T02:39:37.513Z,37
2022-10-07T02:40:41.837Z,28
2022-10-07T02:41:56.933Z,29
2022-10-07T02:43:08.897Z,37
2022-10-07T02:44:20.929Z,34
2022-10-07T02:45:38.517Z,32
2022-10-07T02:46:46.125Z,34
2022-10-07T02:47:50.122Z,33
2022-10-07T02:48:57.013Z,28
2022-10-07T02:51:51.130Z,25
2022-10-07T02:52:55.358Z,27
2022-10-07T02:54:03.498Z,31
2022-10-07T02:55:07.861Z,28
2022-10-07T02:56:12.015Z,28
2022-10-07T02:57:16.241Z,25
2022-10-07T02:58:20.504Z,27
2022-10-07T02:59:25.029Z,27
2022-10-07T03:00:29.313Z,25
2022-10-07T03:01:38.527Z,30
2022-10-07T03:02:42.793Z,31
2022-10-07T03:03:55.548Z,25
2022-10-07T03:04:59.820Z,26
2022-10-07T03:06:04.342Z,32
2022-10-07T03:07:08.697Z,35
2022-10-07T03:09:16.557Z,25
2022-10-07T03:10:21.048Z,30
2022-10-07T03:11:25.542Z,29
2022-10-07T03:12:29.966Z,31
2022-10-07T03:13:37.213Z,34
2022-10-07T03:14:41.509Z,28
2022-10-07T03:15:45.761Z,41
2022-10-07T03:16:50.105Z,32
2022-10-07T03:17:54.456Z,36
2022-10-07T03:19:03.285Z,29
2022-10-07T03:20:07.902Z,37
2022-10-07T03:21:12.348Z,27
2022-10-07T03:22:17.032Z,33
2022-10-07T03:23:21.223Z,32
2022-10-07T03:24:26.408Z,30
2022-10-07T03:25:30.633Z,33
2022-10-07T03:26:34.887Z,32
2022-10-07T03:27:39.196Z,33
2022-10-07T03:28:43.616Z,35
2022-10-07T03:29:47.856Z,33
2022-10-07T03:30:52.149Z,38
2022-10-07T03:31:56.501Z,37
2022-10-07T03:33:01.463Z,36
2022-10-07T03:34:05.739Z,32
2022-10-07T03:35:13.522Z,36
2022-10-07T03:36:18.048Z,31
2022-10-07T03:37:22.260Z,31
2022-10-07T03:38:26.522Z,30
2022-10-07T03:39:33.858Z,25
2022-10-07T03:40:38.344Z,33
2022-10-07T03:41:42.673Z,33
2022-10-07T03:42:48.744Z,34
2022-10-07T03:43:54.344Z,30
2022-10-07T03:44:58.604Z,32
2022-10-07T03:46:03.068Z,34
2022-10-07T03:47:10.603Z,34
2022-10-07T03:48:11.906Z,34
2022-10-07T03:49:16.552Z,33
2022-10-07T03:50:25.068Z,31
2022-10-07T03:51:29.260Z,36
2022-10-07T03:56:12.552Z,28
2022-10-07T04:00:55.432Z,36
2022-10-07T04:05:43.822Z,34
2022-10-07T04:06:58.196Z,37
2022-10-07T04:09:59.603Z,30
2022-10-07T04:11:03.587Z,33
2022-10-07T04:14:37.255Z,27
2022-10-07T04:19:25.327Z,30
2022-10-07T04:20:29.589Z,25
2022-10-07T04:23:54.783Z,35
2022-10-07T04:26:50.812Z,34
2022-10-07T04:29:44.427Z,33
2022-10-07T04:33:13.207Z,36
2022-10-07T04:34:17.299Z,34
2022-10-07T04:35:29.831Z,35
2022-10-07T04:36:34.952Z,39
2022-10-07T04:37:39.196Z,37
2022-10-07T04:40:35.991Z,38
2022-10-07T04:43:34.615Z,33
2022-10-07T04:44:48.795Z,31
2022-10-07T04:45:53.184Z,32
2022-10-07T04:47:10.666Z,25
2022-10-07T04:51:09.390Z,25
2022-10-07T04:52:13.895Z,28
2022-10-07T04:55:52.747Z,26
2022-10-07T05:00:35.981Z,30
2022-10-07T05:01:46.096Z,31
2022-10-07T05:09:53.426Z,28
2022-10-07T05:15:06.558Z,25
2022-10-07T05:16:10.956Z,33
2022-10-07T05:17:25.671Z,27
2022-10-07T05:20:24.115Z,27
2022-10-07T05:21:28.199Z,31
2022-10-07T05:24:36.619Z,29
2022-10-07T05:25:41.850Z,32
2022-10-07T05:26:45.880Z,37
2022-10-07T05:28:00.707Z,32
2022-10-07T05:29:05.353Z,32
2022-10-07T05:32:04.647Z,30
2022-10-07T05:33:04.698Z,33
2022-10-07T05:34:38.864Z,34
2022-10-07T05:37:32.971Z,37
2022-10-07T05:42:30.727Z,39
2022-10-07T05:43:35.227Z,46
2022-10-07T05:52:02.531Z,56
2022-10-07T05:53:06.677Z,54
2022-10-07T05:56:30.399Z,59
2022-10-07T05:59:24.414Z,51
2022-10-07T06:08:02.287Z,57
2022-10-07T06:09:06.294Z,55
2022-10-07T06:14:41.870Z,60
2022-10-07T06:25:30.624Z,70
2022-10-07T06:26:35.015Z,76
2022-10-07T06:31:18.691Z,76
2022-10-07T06:32:25.807Z,79
2022-10-07T06:35:53.378Z,84
2022-10-07T06:36:57.423Z,80
2022-10-07T06:39:57.447Z,83
2022-10-07T06:42:53.787Z,86
2022-10-07T06:44:23.776Z,85
2022-10-07T06:49:36.802Z,96
2022-10-07T06:51:26.838Z,108
2022-10-07T06:52:32.832Z,97
2022-10-07T06:54:03.232Z,104
2022-10-07T06:55:09.047Z,102
2022-10-07T06:56:13.703Z,103
2022-10-07T06:57:44.083Z,104
2022-10-07T07:00:12.917Z,109
2022-10-07T07:01:17.312Z,106
2022-10-07T07:02:26.363Z,115
2022-10-07T07:03:32.885Z,115
2022-10-07T07:04:46.956Z,115
2022-10-07T07:05:54.432Z,113
2022-10-07T07:07:00.937Z,123
2022-10-07T07:08:05.581Z,122
2022-10-07T07:09:09.673Z,118
2022-10-07T07:10:13.800Z,116
2022-10-07T07:11:17.845Z,117
2022-10-07T07:12:27.173Z,121
2022-10-07T07:13:31.181Z,124
2022-10-07T07:14:51.517Z,118
2022-10-07T07:20:05.962Z,117
2022-10-07T07:21:10.980Z,114
2022-10-07T07:22:40.746Z,118
2022-10-07T07:23:55.163Z,121
2022-10-07T07:24:59.214Z,126
2022-10-07T07:26:03.343Z,122
2022-10-07T07:27:07.517Z,120
2022-10-07T07:28:31.799Z,122
2022-10-07T07:29:46.813Z,118
2022-10-07T07:30:50.972Z,119
2022-10-07T07:34:16.795Z,121
2022-10-07T07:39:00.256Z,120
2022-10-07T07:40:10.233Z,118
2022-10-07T07:41:29.380Z,118
2022-10-07T07:42:38.404Z,123
2022-10-07T07:43:45.926Z,117
2022-10-07T07:44:50.079Z,118
2022-10-07T07:46:14.311Z,118
2022-10-07T07:47:18.421Z,121
2022-10-07T07:48:22.432Z,124
2022-10-07T07:51:01.032Z,123
2022-10-07T07:54:19.651Z,113
2022-10-07T07:59:17.778Z,98
2022-10-07T08:02:51.240Z,101
2022-10-07T08:04:20.444Z,90
2022-10-07T08:08:49.516Z,92
2022-10-07T08:09:59.324Z,89
2022-10-07T08:13:25.026Z,92
2022-10-07T08:14:42.924Z,78
2022-10-07T08:18:36.524Z,68
2022-10-07T08:23:49.424Z,55
2022-10-07T08:25:06.797Z,54
2022-10-07T08:29:49.762Z,40
2022-10-07T08:31:29.580Z,37
2022-10-07T08:36:12.208Z,25
2022-10-07T08:37:39.318Z,27
2022-10-07T08:38:49.265Z,30
2022-10-07T08:39:53.385Z,31
2022-10-07T08:41:02.774Z,32
2022-10-07T08:49:02.448Z,25
2022-10-07T08:50:06.700Z,27
2022-10-07T08:51:17.493Z,30
2022-10-07T08:52:43.649Z,30
2022-10-07T08:55:22.288Z,30
2022-10-07T08:56:35.494Z,33
2022-10-07T08:57:39.580Z,29
2022-10-07T09:00:23.656Z,32
2022-10-07T09:01:30.508Z,32
2022-10-07T09:02:42.507Z,34
2022-10-07T09:03:56.760Z,30
2022-10-07T09:05:08.865Z,27
2022-10-07T09:06:18.140Z,38
2022-10-07T09:07:32.364Z,29
2022-10-07T09:10:58.468Z,26
2022-10-07T09:12:15.581Z,25
2022-10-07T09:13:39.368Z,37
2022-10-07T09:15:04.948Z,25
2022-10-07T09:16:09.342Z,30
2022-10-07T09:19:32.274Z,45
2022-10-07T09:22:25.741Z,32
2022-10-07T09:23:32.897Z,31
2022-10-07T09:24:37.040Z,27
2022-10-07T09:25:41.005Z,25
2022-10-07T09:29:05.805Z,25
2022-10-07T09:34:18.628Z,26
2022-10-07T09:35:25.212Z,25
2022-10-07T09:38:52.456Z,28
2022-10-07T09:44:25.320Z,27
2022-10-07T09:45:44.480Z,35
2022-10-07T09:48:42.648Z,30
2022-10-07T09:51:36.470Z,26
2022-10-07T09:52:41.177Z,32
2022-10-07T09:53:45.444Z,30
2022-10-07T09:54:59.264Z,27
2022-10-07T09:56:14.076Z,32
2022-10-07T09:57:19.268Z,37
2022-10-07T09:58:29.536Z,33
2022-10-07T09:59:33.932Z,28
2022-10-07T10:00:38.328Z,37
2022-10-07T10:01:42.672Z,27
2022-10-07T10:02:52.428Z,34
2022-10-07T10:03:59.420Z,35
2022-10-07T10:05:08.016Z,28
2022-10-07T10:06:20.384Z,30
2022-10-07T10:07:24.513Z,36
2022-10-07T10:08:32.076Z,26
2022-10-07T10:09:40.901Z,32
2022-10-07T10:10:54.956Z,32
2022-10-07T10:13:08.596Z,37
2022-10-07T10:14:12.816Z,35
2022-10-07T10:15:27.086Z,38
2022-10-07T10:16:37.196Z,25
2022-10-07T10:17:43.616Z,29
2022-10-07T10:18:47.945Z,26
2022-10-07T10:19:59.228Z,31
2022-10-07T10:21:13.504Z,37
2022-10-07T10:22:25.632Z,31
2022-10-07T10:23:33.276Z,25
2022-10-07T10:24:37.741Z,25
2022-10-07T10:25:47.375Z,28
2022-10-07T10:27:04.501Z,36
2022-10-07T10:28:14.080Z,32
2022-10-07T10:29:23.908Z,30
2022-10-07T10:30:35.609Z,31
2022-10-07T10:31:39.928Z,28
2022-10-07T10:32:52.886Z,33
2022-10-07T10:34:08.004Z,43
2022-10-07T10:35:17.940Z,26
2022-10-07T10:36:34.092Z,25
2022-10-07T10:37:38.290Z,27
2022-10-07T10:38:42.780Z,27
2022-10-07T10:39:52.184Z,37
2022-10-07T10:41:07.044Z,34
2022-10-07T10:42:17.000Z,25
2022-10-07T10:43:21.124Z,26
2022-10-07T10:44:25.465Z,30
2022-10-07T10:45:39.748Z,32
2022-10-07T10:46:54.264Z,31
2022-10-07T10:48:06.711Z,35
2022-10-07T10:49:21.124Z,35
2022-10-07T10:50:31.773Z,35
2022-10-07T10:51:44.585Z,34
2022-10-07T10:52:56.709Z,38
2022-10-07T10:54:05.865Z,31
2022-10-07T10:55:21.989Z,30
2022-10-07T10:56:35.033Z,25
2022-10-07T10:57:39.881Z,25
2022-10-07T10:58:51.776Z,36
2022-10-07T11:00:06.216Z,30
2022-10-07T11:01:20.824Z,34
2022-10-07T11:02:30.082Z,31
2022-10-07T11:03:39.180Z,26
2022-10-07T11:04:44.916Z,34
2022-10-07T11:05:53.240Z,33
2022-10-07T11:06:57.584Z,25
2022-10-07T11:08:10.253Z,26
2022-10-07T11:09:25.433Z,25
2022-10-07T11:10:35.704Z,40
2022-10-07T11:11:42.713Z,31
2022-10-07T11:12:48.075Z,37
2022-10-07T11:13:52.596Z,30
2022-10-07T11:15:02.329Z,37
2022-10-07T11:16:16.955Z,32
2022-10-07T11:17:27.324Z,34
2022-10-07T11:18:33.408Z,34
2022-10-07T11:19:45.845Z,32
2022-10-07T11:20:53.904Z,40
2022-10-07T11:21:58.368Z,30
2022-10-07T11:23:07.258Z,38
2022-10-07T11:24:22.008Z,32
2022-10-07T11:25:35.219Z,34
2022-10-07T11:26:39.629Z,35
2022-10-07T11:27:52.705Z,32
2022-10-07T11:28:56.829Z,29
2022-10-07T11:30:01.824Z,27
2022-10-07T11:31:14.024Z,33
2022-10-07T11:32:26.516Z,42
2022-10-07T11:35:33.920Z,31
2022-10-07T11:36:43.428Z,26
2022-10-07T11:37:58.076Z,30
2022-10-07T11:39:14.080Z,25
2022-10-07T11:40:18.296Z,25
2022-10-07T11:41:22.868Z,28
2022-10-07T11:42:33.065Z,30
2022-10-07T11:43:40.349Z,35
2022-10-07T11:44:44.748Z,30
2022-10-07T11:45:55.616Z,29
2022-10-07T11:48:55.011Z,28
2022-10-07T11:50:06.977Z,41
2022-10-07T11:51:15.079Z,28
2022-10-07T11:52:24.546Z,27
2022-10-07T11:53:28.978Z,34
2022-10-07T11:56:25.581Z,35
2022-10-07T11:57:29.980Z,38
2022-10-07T11:58:34.265Z,41
2022-10-07T11:59:38.984Z,40
2022-10-07T12:00:46.896Z,35
2022-10-07T12:01:51.911Z,29
2022-10-07T12:02:56.387Z,25
2022-10-07T12:04:05.865Z,32
2022-10-07T12:05:20.456Z,31
2022-10-07T12:06:35.065Z,25
2022-10-07T12:07:39.854Z,33
2022-10-07T12:10:36.647Z,44
2022-10-07T12:11:41.925Z,38
2022-10-07T12:12:46.460Z,47
2022-10-07T12:13:53.761Z,45
2022-10-07T12:15:00.356Z,42
2022-10-07T12:16:07.440Z,39
2022-10-07T12:17:22.273Z,43
2022-10-07T12:21:52.789Z,35
2022-10-07T12:24:54.982Z,45
2022-10-07T12:26:09.720Z,54
2022-10-07T12:27:24.167Z,40
2022-10-07T12:28:28.406Z,34
2022-10-07T12:29:32.587Z,36
2022-10-07T12:30:42.108Z,28
2022-10-07T12:31:51.461Z,34
2022-10-07T12:32:55.907Z,32
2022-10-07T12:34:00.515Z,34
2022-10-07T12:36:57.528Z,25
2022-10-07T12:38:11.795Z,38
2022-10-07T12:39:21.132Z,25
2022-10-07T12:40:28.702Z,28
2022-10-07T12:41:36.459Z,30
2022-10-07T12:42:37.215Z,27
2022-10-07T12:43:43.704Z,31
2022-10-07T12:44:53.025Z,34
2022-10-07T12:45:58.887Z,33
2022-10-07T12:50:27.599Z,31
2022-10-07T12:53:21.723Z,40
2022-10-07T12:54:26.431Z,32
2022-10-07T12:55:38.716Z,27
2022-10-07T12:56:43.103Z,30
2022-10-07T12:57:47.443Z,35
2022-10-07T12:58:51.575Z,33
2022-10-07T13:01:55.649Z,36
2022-10-07T13:03:02.664Z,30
2022-10-07T13:04:17.190Z,32
2022-10-07T13:05:25.123Z,34
2022-10-07T13:06:37.223Z,28
2022-10-07T13:07:51.889Z,33
2022-10-07T13:09:06.634Z,29
2022-10-07T13:10:17.803Z,31
2022-10-07T13:11:32.282Z,29
2022-10-07T13:12:44.903Z,29
2022-10-07T13:13:55.140Z,40
2022-10-07T13:15:07.446Z,33
2022-10-07T13:16:17.271Z,28
2022-10-07T13:17:26.736Z,25
2022-10-07T13:18:36.827Z,28
2022-10-07T13:19:41.243Z,30
2022-10-07T13:20:53.100Z,26
2022-10-07T13:22:01.691Z,34
2022-10-07T13:23:13.932Z,30
2022-10-07T13:24:22.682Z,31
2022-10-07T13:25:29.580Z,32
2022-10-07T13:26:34.123Z,31
2022-10-07T13:29:32.991Z,34
2022-10-07T13:30:37.351Z,33
2022-10-07T13:35:20.972Z,35
2022-10-07T13:36:30.912Z,40
2022-10-07T13:40:59.269Z,42
2022-10-07T13:42:16.958Z,42
2022-10-07T13:45:38.397Z,45
2022-10-07T13:46:42.857Z,45
2022-10-07T13:55:42.680Z,53
2022-10-07T13:59:45.495Z,52
2022-10-07T14:00:49.848Z,55
2022-10-07T14:05:23.003Z,56
2022-10-07T14:08:31.715Z,63
2022-10-07T14:09:35.882Z,68
2022-10-07T14:10:50.132Z,71
2022-10-07T14:14:21.726Z,82
2022-10-07T14:21:18.647Z,94
2022-10-07T14:22:22.879Z,91
2022-10-07T14:23:36.314Z,94
2022-10-07T14:24:40.699Z,105
2022-10-07T14:27:35.171Z,104
2022-10-07T14:28:39.526Z,105
2022-10-07T14:31:33.744Z,111
2022-10-07T14:32:43.502Z,111
2022-10-07T14:33:57.701Z,115
2022-10-07T14:35:17.385Z,114
2022-10-07T14:36:21.973Z,119
2022-10-07T14:37:31.024Z,118
2022-10-07T14:38:30.570Z,116
2022-10-07T14:39:34.917Z,115
2022-10-07T14:40:42.002Z,124
2022-10-07T14:41:46.320Z,118
2022-10-07T14:42:50.728Z,121
2022-10-07T14:43:55.109Z,121
2022-10-07T14:44:59.392Z,118
2022-10-07T14:46:03.918Z,120
2022-10-07T14:47:14.075Z,125
2022-10-07T14:48:18.388Z,125
2022-10-07T14:49:23.328Z,124
2022-10-07T14:50:29.116Z,124
2022-10-07T14:51:34.821Z,124
2022-10-07T14:52:43.689Z,125
2022-10-07T14:53:46.528Z,128
2022-10-07T14:54:53.200Z,124
2022-10-07T14:56:00.604Z,132
2022-10-07T14:57:07.542Z,128
2022-10-07T14:58:26.689Z,121
2022-10-07T14:59:28.692Z,131
2022-10-07T15:00:39.590Z,131
2022-10-07T15:01:41.620Z,126
2022-10-07T15:02:46.260Z,130
2022-10-07T15:03:50.391Z,130
2022-10-07T15:04:54.962Z,133
2022-10-07T15:05:59.295Z,129
2022-10-07T15:07:03.588Z,138
2022-10-07T15:08:07.804Z,136
2022-10-07T15:09:12.164Z,140
2022-10-07T15:10:17.090Z,140
2022-10-07T15:11:21.914Z,145
2022-10-07T15:12:26.209Z,140
2022-10-07T15:13:30.561Z,144
2022-10-07T15:14:35.020Z,138
2022-10-07T15:15:39.380Z,141
2022-10-07T15:16:43.976Z,136
2022-10-07T15:17:48.512Z,135
2022-10-07T15:18:53.359Z,136
2022-10-07T15:20:02.388Z,133
2022-10-07T15:21:09.960Z,130
2022-10-07T15:22:14.388Z,134
2022-10-07T15:23:20.064Z,130
2022-10-07T15:24:25.546Z,130
2022-10-07T15:25:30.064Z,124
2022-10-07T15:26:34.464Z,127
2022-10-07T15:27:39.109Z,123
2022-10-07T15:28:43.513Z,123
2022-10-07T15:29:48.213Z,133
2022-10-07T15:30:52.418Z,130
2022-10-07T15:32:05.912Z,128
2022-10-07T15:33:14.452Z,134
2022-10-07T15:34:19.140Z,132
2022-10-07T15:35:23.886Z,128
2022-10-07T15:36:30.288Z,130
2022-10-07T15:37:36.088Z,130
2022-10-07T15:38:40.594Z,134
2022-10-07T15:39:45.082Z,134
2022-10-07T15:40:49.533Z,128
2022-10-07T15:41:56.784Z,128
2022-10-07T15:43:01.994Z,136
2022-10-07T15:44:06.607Z,125
2022-10-07T15:45:13.576Z,132
2022-10-07T15:46:18.514Z,131
2022-10-07T15:47:23.113Z,133
2022-10-07T15:48:27.419Z,130
2022-10-07T15:49:31.564Z,128
2022-10-07T15:50:36.032Z,134
2022-10-07T15:51:40.564Z,137
2022-10-07T15:52:45.105Z,138
2022-10-07T15:53:49.136Z,132
2022-10-07T15:54:57.076Z,141
2022-10-07T15:56:02.293Z,138
2022-10-07T15:57:07.843Z,148
2022-10-07T15:58:12.231Z,152
2022-10-07T15:59:17.249Z,152
2022-10-07T16:00:22.158Z,165
2022-10-07T16:01:26.966Z,166
2022-10-07T16:02:34.083Z,169
2022-10-07T16:03:38.402Z,168
2022-10-07T16:04:46.020Z,176
2022-10-07T16:05:51.807Z,177
2022-10-07T16:06:58.830Z,172
2022-10-07T16:08:03.350Z,168
2022-10-07T16:09:07.871Z,166
2022-10-07T16:10:13.253Z,163
2022-10-07T16:11:16.692Z,161
2022-10-07T16:12:21.211Z,157
2022-10-07T16:13:25.708Z,145
2022-10-07T16:14:30.388Z,149
2022-10-07T16:15:35.385Z,149
2022-10-07T16:16:39.796Z,140
2022-10-07T16:17:44.748Z,124
2022-10-07T16:18:49.451Z,118
2022-10-07T16:19:53.688Z,127
2022-10-07T16:20:58.236Z,126
2022-10-07T16:22:05.798Z,125
2022-10-07T16:23:10.513Z,123
2022-10-07T16:24:14.696Z,108
2022-10-07T16:25:19.360Z,109
2022-10-07T16:26:23.728Z,120
2022-10-07T16:27:28.099Z,117
2022-10-07T16:28:32.993Z,103
2022-10-07T16:29:42.633Z,109
2022-10-07T16:30:52.794Z,113
2022-10-07T16:31:58.751Z,109
2022-10-07T16:33:04.912Z,113
2022-10-07T16:34:11.367Z,109
2022-10-07T16:35:20.273Z,129
2022-10-07T16:36:25.125Z,127
2022-10-07T16:37:29.884Z,135
2022-10-07T16:38:35.681Z,148
2022-10-07T16:43:38.581Z,179
2022-10-07T16:48:37.592Z,261
2022-10-07T16:53:30.506Z,243
2022-10-07T16:58:00.616Z,201
2022-10-07T17:02:43.484Z,158
2022-10-07T17:07:26.282Z,126
2022-10-07T17:12:58.999Z,113
2022-10-07T17:16:32.851Z,101
2022-10-07T17:21:15.609Z,89
2022-10-07T17:26:29.566Z,78
2022-10-07T17:27:33.714Z,77
2022-10-07T17:30:58.713Z,77
2022-10-07T17:36:17.139Z,75
2022-10-07T17:37:21.362Z,67
2022-10-07T17:40:46.859Z,67
2022-10-07T17:45:29.875Z,71
2022-10-07T17:46:36.931Z,72
2022-10-07T17:50:03.727Z,69
2022-10-07T17:54:47.487Z,70
2022-10-07T17:59:31.330Z,74
2022-10-07T18:16:26.120Z,82
2022-10-07T18:21:12.318Z,90
2022-10-07T18:26:45.206Z,92
2022-10-07T18:28:09.886Z,92
2022-10-07T18:32:53.545Z,98
2022-10-07T18:37:36.818Z,108
2022-10-07T18:42:59.576Z,115
2022-10-07T18:47:57.725Z,110
2022-10-07T18:52:28.150Z,106
2022-10-07T18:57:22.035Z,113
2022-10-07T19:02:05.299Z,112
2022-10-07T19:06:48.420Z,107
2022-10-07T19:11:31.206Z,106
2022-10-07T19:17:03.984Z,104
2022-10-07T19:20:37.499Z,102
2022-10-07T19:25:21.133Z,100
2022-10-07T19:26:30.161Z,103
2022-10-07T19:37:48.798Z,98
2022-10-07T19:38:57.682Z,98
2022-10-07T19:44:10.218Z,89
2022-10-07T19:49:23.871Z,97
2022-10-07T19:54:06.766Z,100
2022-10-07T19:59:19.862Z,96
2022-10-07T20:03:50.274Z,91
2022-10-07T20:04:56.922Z,90
2022-10-07T20:08:26.302Z,83
2022-10-07T20:09:30.385Z,84
2022-10-07T20:12:55.661Z,82
2022-10-07T20:17:38.853Z,95
2022-10-07T20:22:21.617Z,82
2022-10-07T20:27:05.154Z,93
2022-10-07T20:44:00.882Z,118
2022-10-07T20:45:10.177Z,119
2022-10-07T20:49:53.174Z,114
2022-10-07T20:54:35.965Z,119
2022-10-07T20:59:18.917Z,112
2022-10-07T21:04:51.738Z,107
2022-10-07T21:13:31.101Z,114
2022-10-07T21:14:35.367Z,118
2022-10-07T21:18:02.107Z,118
2022-10-07T21:23:14.870Z,107
2022-10-07T21:24:18.982Z,110
2022-10-07T21:32:55.547Z,97
2022-10-07T21:33:59.769Z,100
2022-10-07T21:37:28.267Z,93
2022-10-07T21:42:36.149Z,99
2022-10-07T21:43:40.251Z,96
2022-10-07T21:47:05.671Z,98
2022-10-07T21:59:01.666Z,118
2022-10-07T22:05:21.547Z,111
2022-10-07T22:10:04.849Z,104
2022-10-07T22:15:18.057Z,101
2022-10-07T22:19:12.530Z,96
2022-10-07T22:20:16.582Z,93
2022-10-07T22:24:41.313Z,84
2022-10-07T22:25:45.473Z,80
2022-10-07T22:31:18.293Z,68
2022-10-07T22:40:14.834Z,66
2022-10-07T22:41:18.957Z,63
2022-10-07T22:44:44.069Z,65
2022-10-07T22:49:29.713Z,66
2022-10-07T22:54:39.974Z,57
2022-10-07T22:55:44.050Z,62
2022-10-07T22:59:12.585Z,57
2022-10-07T23:00:16.812Z,54
2022-10-07T23:03:43.921Z,45
2022-10-07T23:08:26.851Z,42
2022-10-07T23:13:09.569Z,42
2022-10-07T23:25:33.013Z,36
2022-10-07T23:26:42.198Z,28
2022-10-07T23:31:54.900Z,25
2022-10-07T23:37:07.765Z,27
2022-10-07T23:42:20.578Z,30
2022-10-07T23:47:03.205Z,31
2022-10-07T23:52:15.995Z,31
2022-10-07T23:56:45.545Z,35
